sensor_id;sensor_type;location;lat;lon;timestamp;P1;durP1;ratioP1;P2;durP2;ratioP2
79464;SDS011;68932;47.410;8.232;2024-01-15T00:01:31;28.70;;;13.30;;
79464;SDS011;68932;47.410;8.232;2024-01-15T00:03:59;36.00;;;15.00;;
79464;SDS011;68932;47.410;8.232;2024-01-15T00:06:28;29.20;;;15.80;;
79464;SDS011;68932;47.410;8.232;2024-01-15T00:08:56;32.10;;;14.80;;
79464;SDS011;68932;47.410;8.232;2024-01-15T00:11:24;29.10;;;13.60;;
79464;SDS011;68932;47.410;8.232;2024-01-15T00:13:53;29.20;;;15.10;;
79464;SDS011;68932;47.410;8.232;2024-01-15T00:16:21;31.10;;;14.60;;
79464;SDS011;68932;47.410;8.232;2024-01-15T00:18:49;29.40;;;13.50;;
79464;SDS011;68932;47.410;8.232;2024-01-15T00:21:18;26.30;;;13.30;;
79464;SDS011;68932;47.410;8.232;2024-01-15T00:23:46;29.00;;;13.80;;
79464;SDS011;68932;47.410;8.232;2024-01-15T00:26:15;35.10;;;17.00;;
79464;SDS011;68932;47.410;8.232;2024-01-15T00:28:43;34.40;;;16.60;;
79464;SDS011;68932;47.410;8.232;2024-01-15T00:31:11;31.60;;;15.50;;
79464;SDS011;68932;47.410;8.232;2024-01-15T00:33:42;35.20;;;16.00;;
79464;SDS011;68932;47.410;8.232;2024-01-15T00:36:10;28.20;;;15.30;;
79464;SDS011;68932;47.410;8.232;2024-01-15T00:38:39;31.50;;;15.30;;
79464;SDS011;68932;47.410;8.232;2024-01-15T00:41:07;35.70;;;15.10;;
79464;SDS011;68932;47.410;8.232;2024-01-15T00:43:35;33.80;;;14.80;;
79464;SDS011;68932;47.410;8.232;2024-01-15T00:46:03;30.60;;;15.20;;
79464;SDS011;68932;47.410;8.232;2024-01-15T00:48:32;22.50;;;11.90;;
79464;SDS011;68932;47.410;8.232;2024-01-15T00:51:00;22.60;;;13.40;;
79464;SDS011;68932;47.410;8.232;2024-01-15T00:53:29;18.60;;;10.80;;
79464;SDS011;68932;47.410;8.232;2024-01-15T00:55:57;19.40;;;10.70;;
79464;SDS011;68932;47.410;8.232;2024-01-15T00:58:25;18.70;;;10.50;;
79464;SDS011;68932;47.410;8.232;2024-01-15T01:00:53;13.90;;;8.80;;
79464;SDS011;68932;47.410;8.232;2024-01-15T01:03:22;16.10;;;10.20;;
79464;SDS011;68932;47.410;8.232;2024-01-15T01:05:50;16.00;;;10.30;;
79464;SDS011;68932;47.410;8.232;2024-01-15T01:08:18;18.10;;;11.00;;
79464;SDS011;68932;47.410;8.232;2024-01-15T01:10:47;17.50;;;10.70;;
79464;SDS011;68932;47.410;8.232;2024-01-15T01:13:15;19.40;;;10.50;;
79464;SDS011;68932;47.410;8.232;2024-01-15T01:15:44;20.80;;;10.50;;
79464;SDS011;68932;47.410;8.232;2024-01-15T01:18:12;18.70;;;10.30;;
79464;SDS011;68932;47.410;8.232;2024-01-15T01:20:40;17.70;;;9.40;;
79464;SDS011;68932;47.410;8.232;2024-01-15T01:23:08;15.50;;;9.80;;
79464;SDS011;68932;47.410;8.232;2024-01-15T01:25:37;16.50;;;10.40;;
79464;SDS011;68932;47.410;8.232;2024-01-15T01:28:05;17.30;;;10.30;;
79464;SDS011;68932;47.410;8.232;2024-01-15T01:30:33;18.20;;;9.70;;
79464;SDS011;68932;47.410;8.232;2024-01-15T01:33:02;17.20;;;10.60;;
79464;SDS011;68932;47.410;8.232;2024-01-15T01:35:31;17.60;;;10.70;;
79464;SDS011;68932;47.410;8.232;2024-01-15T01:37:59;18.50;;;10.60;;
79464;SDS011;68932;47.410;8.232;2024-01-15T01:40:27;19.60;;;11.10;;
79464;SDS011;68932;47.410;8.232;2024-01-15T01:42:56;18.90;;;10.10;;
79464;SDS011;68932;47.410;8.232;2024-01-15T01:45:24;17.50;;;9.60;;
79464;SDS011;68932;47.410;8.232;2024-01-15T01:47:52;19.20;;;10.60;;
79464;SDS011;68932;47.410;8.232;2024-01-15T01:50:21;19.60;;;10.90;;
79464;SDS011;68932;47.410;8.232;2024-01-15T01:52:49;20.90;;;11.10;;
79464;SDS011;68932;47.410;8.232;2024-01-15T01:55:18;21.30;;;11.10;;
79464;SDS011;68932;47.410;8.232;2024-01-15T01:57:48;21.70;;;11.50;;
79464;SDS011;68932;47.410;8.232;2024-01-15T02:00:17;19.50;;;10.10;;
79464;SDS011;68932;47.410;8.232;2024-01-15T02:02:45;22.00;;;11.30;;
79464;SDS011;68932;47.410;8.232;2024-01-15T02:05:14;19.80;;;8.80;;
79464;SDS011;68932;47.410;8.232;2024-01-15T02:07:46;20.50;;;10.50;;
79464;SDS011;68932;47.410;8.232;2024-01-15T02:10:14;21.10;;;11.70;;
79464;SDS011;68932;47.410;8.232;2024-01-15T02:12:43;19.00;;;10.00;;
79464;SDS011;68932;47.410;8.232;2024-01-15T02:15:12;25.20;;;12.60;;
79464;SDS011;68932;47.410;8.232;2024-01-15T02:20:26;24.20;;;12.00;;
79464;SDS011;68932;47.410;8.232;2024-01-15T02:25:36;26.70;;;12.60;;
79464;SDS011;68932;47.410;8.232;2024-01-15T02:28:06;25.60;;;12.70;;
79464;SDS011;68932;47.410;8.232;2024-01-15T02:30:36;30.60;;;14.40;;
79464;SDS011;68932;47.410;8.232;2024-01-15T02:33:06;29.30;;;13.90;;
79464;SDS011;68932;47.410;8.232;2024-01-15T02:35:34;28.60;;;13.00;;
79464;SDS011;68932;47.410;8.232;2024-01-15T02:38:03;29.00;;;12.70;;
79464;SDS011;68932;47.410;8.232;2024-01-15T02:40:32;27.80;;;14.00;;
79464;SDS011;68932;47.410;8.232;2024-01-15T02:43:00;28.60;;;13.60;;
79464;SDS011;68932;47.410;8.232;2024-01-15T02:45:29;33.00;;;15.20;;
79464;SDS011;68932;47.410;8.232;2024-01-15T02:47:57;25.50;;;12.10;;
79464;SDS011;68932;47.410;8.232;2024-01-15T02:50:26;26.20;;;10.90;;
79464;SDS011;68932;47.410;8.232;2024-01-15T02:52:54;26.60;;;12.90;;
79464;SDS011;68932;47.410;8.232;2024-01-15T02:55:22;27.60;;;11.90;;
79464;SDS011;68932;47.410;8.232;2024-01-15T02:57:50;27.50;;;11.70;;
79464;SDS011;68932;47.410;8.232;2024-01-15T03:00:19;28.60;;;14.10;;
79464;SDS011;68932;47.410;8.232;2024-01-15T03:02:48;28.40;;;13.10;;
79464;SDS011;68932;47.410;8.232;2024-01-15T03:05:18;24.20;;;11.90;;
79464;SDS011;68932;47.410;8.232;2024-01-15T03:07:46;22.00;;;12.90;;
79464;SDS011;68932;47.410;8.232;2024-01-15T03:10:14;22.50;;;11.20;;
79464;SDS011;68932;47.410;8.232;2024-01-15T03:12:43;18.40;;;10.40;;
79464;SDS011;68932;47.410;8.232;2024-01-15T03:15:11;22.00;;;10.50;;
79464;SDS011;68932;47.410;8.232;2024-01-15T03:17:40;24.10;;;10.90;;
79464;SDS011;68932;47.410;8.232;2024-01-15T03:20:10;18.90;;;8.80;;
79464;SDS011;68932;47.410;8.232;2024-01-15T03:22:38;23.80;;;11.50;;
79464;SDS011;68932;47.410;8.232;2024-01-15T03:25:07;24.70;;;11.90;;
79464;SDS011;68932;47.410;8.232;2024-01-15T03:27:36;22.50;;;10.90;;
79464;SDS011;68932;47.410;8.232;2024-01-15T03:30:05;25.30;;;11.00;;
79464;SDS011;68932;47.410;8.232;2024-01-15T03:32:34;23.70;;;11.00;;
79464;SDS011;68932;47.410;8.232;2024-01-15T03:35:03;24.70;;;11.40;;
79464;SDS011;68932;47.410;8.232;2024-01-15T03:37:32;20.30;;;12.90;;
79464;SDS011;68932;47.410;8.232;2024-01-15T03:40:00;20.50;;;10.60;;
79464;SDS011;68932;47.410;8.232;2024-01-15T03:42:29;19.40;;;10.40;;
79464;SDS011;68932;47.410;8.232;2024-01-15T03:44:58;19.60;;;10.10;;
79464;SDS011;68932;47.410;8.232;2024-01-15T03:47:26;21.90;;;9.50;;
79464;SDS011;68932;47.410;8.232;2024-01-15T03:49:54;18.70;;;9.50;;
79464;SDS011;68932;47.410;8.232;2024-01-15T03:52:23;22.30;;;10.90;;
79464;SDS011;68932;47.410;8.232;2024-01-15T03:54:51;17.60;;;9.70;;
79464;SDS011;68932;47.410;8.232;2024-01-15T03:57:19;19.40;;;8.30;;
79464;SDS011;68932;47.410;8.232;2024-01-15T03:59:48;18.20;;;9.00;;
79464;SDS011;68932;47.410;8.232;2024-01-15T04:02:16;16.70;;;8.90;;
79464;SDS011;68932;47.410;8.232;2024-01-15T04:04:44;13.40;;;6.10;;
79464;SDS011;68932;47.410;8.232;2024-01-15T04:07:13;18.30;;;8.90;;
79464;SDS011;68932;47.410;8.232;2024-01-15T04:09:41;17.00;;;9.00;;
79464;SDS011;68932;47.410;8.232;2024-01-15T04:12:09;16.90;;;7.70;;
79464;SDS011;68932;47.410;8.232;2024-01-15T04:14:38;14.40;;;7.00;;
79464;SDS011;68932;47.410;8.232;2024-01-15T04:17:06;14.00;;;7.10;;
79464;SDS011;68932;47.410;8.232;2024-01-15T04:19:34;14.90;;;7.60;;
79464;SDS011;68932;47.410;8.232;2024-01-15T04:22:03;13.00;;;5.70;;
79464;SDS011;68932;47.410;8.232;2024-01-15T04:24:32;13.40;;;6.20;;
79464;SDS011;68932;47.410;8.232;2024-01-15T04:27:01;16.20;;;7.30;;
79464;SDS011;68932;47.410;8.232;2024-01-15T04:29:29;14.80;;;6.80;;
79464;SDS011;68932;47.410;8.232;2024-01-15T04:31:58;13.70;;;6.10;;
79464;SDS011;68932;47.410;8.232;2024-01-15T04:34:26;11.40;;;6.10;;
79464;SDS011;68932;47.410;8.232;2024-01-15T04:36:54;13.40;;;6.60;;
79464;SDS011;68932;47.410;8.232;2024-01-15T04:39:22;12.70;;;6.30;;
79464;SDS011;68932;47.410;8.232;2024-01-15T04:41:51;11.60;;;5.80;;
79464;SDS011;68932;47.410;8.232;2024-01-15T04:44:19;14.20;;;6.70;;
79464;SDS011;68932;47.410;8.232;2024-01-15T04:46:49;13.30;;;6.10;;
79464;SDS011;68932;47.410;8.232;2024-01-15T04:49:17;15.50;;;7.20;;
79464;SDS011;68932;47.410;8.232;2024-01-15T04:51:45;13.40;;;6.70;;
79464;SDS011;68932;47.410;8.232;2024-01-15T04:54:14;12.60;;;6.70;;
79464;SDS011;68932;47.410;8.232;2024-01-15T04:56:42;11.40;;;6.40;;
79464;SDS011;68932;47.410;8.232;2024-01-15T04:59:11;12.10;;;5.90;;
79464;SDS011;68932;47.410;8.232;2024-01-15T05:01:40;11.10;;;5.20;;
79464;SDS011;68932;47.410;8.232;2024-01-15T05:04:09;13.00;;;6.00;;
79464;SDS011;68932;47.410;8.232;2024-01-15T05:06:37;11.30;;;6.20;;
79464;SDS011;68932;47.410;8.232;2024-01-15T05:09:05;10.00;;;5.10;;
79464;SDS011;68932;47.410;8.232;2024-01-15T05:11:33;10.60;;;5.80;;
79464;SDS011;68932;47.410;8.232;2024-01-15T05:14:02;11.10;;;6.00;;
79464;SDS011;68932;47.410;8.232;2024-01-15T05:16:30;11.50;;;6.30;;
79464;SDS011;68932;47.410;8.232;2024-01-15T05:18:58;10.20;;;5.70;;
79464;SDS011;68932;47.410;8.232;2024-01-15T05:21:26;12.00;;;6.50;;
79464;SDS011;68932;47.410;8.232;2024-01-15T05:23:55;12.50;;;7.20;;
79464;SDS011;68932;47.410;8.232;2024-01-15T05:26:23;11.40;;;5.70;;
79464;SDS011;68932;47.410;8.232;2024-01-15T05:28:51;14.80;;;8.20;;
79464;SDS011;68932;47.410;8.232;2024-01-15T05:31:19;11.80;;;6.10;;
79464;SDS011;68932;47.410;8.232;2024-01-15T05:33:48;11.20;;;6.80;;
79464;SDS011;68932;47.410;8.232;2024-01-15T05:36:16;14.20;;;7.30;;
79464;SDS011;68932;47.410;8.232;2024-01-15T05:38:44;13.70;;;6.90;;
79464;SDS011;68932;47.410;8.232;2024-01-15T05:41:13;12.60;;;6.80;;
79464;SDS011;68932;47.410;8.232;2024-01-15T05:43:41;12.20;;;7.30;;
79464;SDS011;68932;47.410;8.232;2024-01-15T05:46:09;15.70;;;8.30;;
79464;SDS011;68932;47.410;8.232;2024-01-15T05:48:38;17.20;;;7.90;;
79464;SDS011;68932;47.410;8.232;2024-01-15T05:51:06;14.50;;;7.50;;
79464;SDS011;68932;47.410;8.232;2024-01-15T05:53:34;12.30;;;7.00;;
79464;SDS011;68932;47.410;8.232;2024-01-15T05:56:02;14.80;;;8.40;;
79464;SDS011;68932;47.410;8.232;2024-01-15T05:58:31;15.60;;;7.30;;
79464;SDS011;68932;47.410;8.232;2024-01-15T06:01:00;14.00;;;7.90;;
79464;SDS011;68932;47.410;8.232;2024-01-15T06:03:28;10.60;;;5.80;;
79464;SDS011;68932;47.410;8.232;2024-01-15T06:05:56;16.50;;;8.40;;
79464;SDS011;68932;47.410;8.232;2024-01-15T06:08:25;13.50;;;7.60;;
79464;SDS011;68932;47.410;8.232;2024-01-15T06:10:53;13.40;;;6.90;;
79464;SDS011;68932;47.410;8.232;2024-01-15T06:13:22;13.00;;;7.10;;
79464;SDS011;68932;47.410;8.232;2024-01-15T06:15:50;14.70;;;7.10;;
79464;SDS011;68932;47.410;8.232;2024-01-15T06:18:19;13.50;;;6.90;;
79464;SDS011;68932;47.410;8.232;2024-01-15T06:20:47;12.40;;;6.80;;
79464;SDS011;68932;47.410;8.232;2024-01-15T06:23:15;13.30;;;6.30;;
79464;SDS011;68932;47.410;8.232;2024-01-15T06:25:43;15.20;;;7.40;;
79464;SDS011;68932;47.410;8.232;2024-01-15T06:28:12;13.80;;;6.50;;
79464;SDS011;68932;47.410;8.232;2024-01-15T06:30:40;14.40;;;7.80;;
79464;SDS011;68932;47.410;8.232;2024-01-15T06:33:08;10.60;;;6.10;;
79464;SDS011;68932;47.410;8.232;2024-01-15T06:35:36;11.50;;;7.30;;
79464;SDS011;68932;47.410;8.232;2024-01-15T06:38:05;11.70;;;6.40;;
79464;SDS011;68932;47.410;8.232;2024-01-15T06:40:33;12.40;;;6.90;;
79464;SDS011;68932;47.410;8.232;2024-01-15T06:43:02;9.80;;;5.50;;
79464;SDS011;68932;47.410;8.232;2024-01-15T06:45:30;10.00;;;5.30;;
79464;SDS011;68932;47.410;8.232;2024-01-15T06:47:58;8.00;;;4.50;;
79464;SDS011;68932;47.410;8.232;2024-01-15T06:50:27;13.80;;;7.00;;
79464;SDS011;68932;47.410;8.232;2024-01-15T06:52:55;10.70;;;5.50;;
79464;SDS011;68932;47.410;8.232;2024-01-15T06:55:23;9.00;;;5.20;;
79464;SDS011;68932;47.410;8.232;2024-01-15T06:57:52;10.80;;;4.90;;
79464;SDS011;68932;47.410;8.232;2024-01-15T07:00:20;8.00;;;4.50;;
79464;SDS011;68932;47.410;8.232;2024-01-15T07:02:48;5.90;;;3.20;;
79464;SDS011;68932;47.410;8.232;2024-01-15T07:05:17;8.10;;;4.00;;
79464;SDS011;68932;47.410;8.232;2024-01-15T07:07:46;7.90;;;4.10;;
79464;SDS011;68932;47.410;8.232;2024-01-15T07:10:15;8.30;;;3.90;;
79464;SDS011;68932;47.410;8.232;2024-01-15T07:12:43;8.80;;;4.70;;
79464;SDS011;68932;47.410;8.232;2024-01-15T07:15:11;10.70;;;5.60;;
79464;SDS011;68932;47.410;8.232;2024-01-15T07:17:41;5.50;;;3.50;;
79464;SDS011;68932;47.410;8.232;2024-01-15T07:20:10;9.70;;;5.10;;
79464;SDS011;68932;47.410;8.232;2024-01-15T07:22:39;10.00;;;5.80;;
79464;SDS011;68932;47.410;8.232;2024-01-15T07:25:07;10.30;;;5.50;;
79464;SDS011;68932;47.410;8.232;2024-01-15T07:27:36;9.10;;;5.00;;
79464;SDS011;68932;47.410;8.232;2024-01-15T07:30:05;8.60;;;5.30;;
79464;SDS011;68932;47.410;8.232;2024-01-15T07:32:34;10.80;;;5.20;;
79464;SDS011;68932;47.410;8.232;2024-01-15T07:35:03;10.10;;;5.60;;
79464;SDS011;68932;47.410;8.232;2024-01-15T07:37:32;11.40;;;5.70;;
79464;SDS011;68932;47.410;8.232;2024-01-15T07:40:00;8.90;;;4.40;;
79464;SDS011;68932;47.410;8.232;2024-01-15T07:42:29;11.70;;;6.10;;
79464;SDS011;68932;47.410;8.232;2024-01-15T07:44:57;9.70;;;4.90;;
79464;SDS011;68932;47.410;8.232;2024-01-15T07:47:25;8.10;;;4.60;;
79464;SDS011;68932;47.410;8.232;2024-01-15T07:49:54;6.60;;;4.20;;
79464;SDS011;68932;47.410;8.232;2024-01-15T07:52:22;8.10;;;4.70;;
79464;SDS011;68932;47.410;8.232;2024-01-15T07:54:50;7.30;;;4.00;;
79464;SDS011;68932;47.410;8.232;2024-01-15T07:57:19;11.20;;;4.70;;
79464;SDS011;68932;47.410;8.232;2024-01-15T07:59:47;7.30;;;4.00;;
79464;SDS011;68932;47.410;8.232;2024-01-15T08:02:15;8.00;;;4.30;;
79464;SDS011;68932;47.410;8.232;2024-01-15T08:04:43;7.60;;;5.10;;
79464;SDS011;68932;47.410;8.232;2024-01-15T08:07:12;8.60;;;4.70;;
79464;SDS011;68932;47.410;8.232;2024-01-15T08:09:40;7.50;;;4.50;;
79464;SDS011;68932;47.410;8.232;2024-01-15T08:12:09;6.90;;;4.20;;
79464;SDS011;68932;47.410;8.232;2024-01-15T08:14:37;6.40;;;3.90;;
79464;SDS011;68932;47.410;8.232;2024-01-15T08:17:06;5.90;;;3.40;;
79464;SDS011;68932;47.410;8.232;2024-01-15T08:19:34;6.50;;;3.50;;
79464;SDS011;68932;47.410;8.232;2024-01-15T08:22:03;6.30;;;3.80;;
79464;SDS011;68932;47.410;8.232;2024-01-15T08:24:31;5.30;;;3.10;;
79464;SDS011;68932;47.410;8.232;2024-01-15T08:26:59;5.30;;;2.80;;
79464;SDS011;68932;47.410;8.232;2024-01-15T08:29:28;17.00;;;3.90;;
79464;SDS011;68932;47.410;8.232;2024-01-15T08:31:56;6.20;;;3.60;;
79464;SDS011;68932;47.410;8.232;2024-01-15T08:34:24;5.40;;;2.90;;
79464;SDS011;68932;47.410;8.232;2024-01-15T08:36:53;6.20;;;3.40;;
79464;SDS011;68932;47.410;8.232;2024-01-15T08:39:21;4.40;;;3.10;;
79464;SDS011;68932;47.410;8.232;2024-01-15T08:41:49;5.60;;;2.90;;
79464;SDS011;68932;47.410;8.232;2024-01-15T08:44:18;4.30;;;2.90;;
79464;SDS011;68932;47.410;8.232;2024-01-15T08:46:46;3.90;;;3.00;;
79464;SDS011;68932;47.410;8.232;2024-01-15T08:49:14;5.90;;;3.00;;
79464;SDS011;68932;47.410;8.232;2024-01-15T08:51:43;3.70;;;2.70;;
79464;SDS011;68932;47.410;8.232;2024-01-15T08:54:11;4.50;;;2.10;;
79464;SDS011;68932;47.410;8.232;2024-01-15T08:56:39;3.10;;;2.40;;
79464;SDS011;68932;47.410;8.232;2024-01-15T08:59:07;3.20;;;2.00;;
79464;SDS011;68932;47.410;8.232;2024-01-15T09:01:35;3.90;;;2.70;;
79464;SDS011;68932;47.410;8.232;2024-01-15T09:04:04;4.00;;;2.50;;
79464;SDS011;68932;47.410;8.232;2024-01-15T09:06:32;3.80;;;2.40;;
79464;SDS011;68932;47.410;8.232;2024-01-15T09:09:01;3.80;;;2.30;;
79464;SDS011;68932;47.410;8.232;2024-01-15T09:11:29;8.10;;;4.50;;
79464;SDS011;68932;47.410;8.232;2024-01-15T09:13:57;4.80;;;3.20;;
79464;SDS011;68932;47.410;8.232;2024-01-15T09:16:25;7.00;;;3.30;;
79464;SDS011;68932;47.410;8.232;2024-01-15T09:18:54;3.80;;;2.90;;
79464;SDS011;68932;47.410;8.232;2024-01-15T09:21:22;3.10;;;2.70;;
79464;SDS011;68932;47.410;8.232;2024-01-15T09:23:51;5.10;;;2.40;;
79464;SDS011;68932;47.410;8.232;2024-01-15T09:26:19;4.40;;;2.30;;
79464;SDS011;68932;47.410;8.232;2024-01-15T09:28:47;3.20;;;2.50;;
79464;SDS011;68932;47.410;8.232;2024-01-15T09:31:15;6.00;;;2.50;;
79464;SDS011;68932;47.410;8.232;2024-01-15T09:33:44;3.70;;;1.70;;
79464;SDS011;68932;47.410;8.232;2024-01-15T09:36:12;4.20;;;2.50;;
79464;SDS011;68932;47.410;8.232;2024-01-15T09:38:41;3.20;;;2.10;;
79464;SDS011;68932;47.410;8.232;2024-01-15T09:41:09;3.70;;;1.90;;
79464;SDS011;68932;47.410;8.232;2024-01-15T09:43:38;3.60;;;2.50;;
79464;SDS011;68932;47.410;8.232;2024-01-15T09:46:06;3.50;;;2.10;;
79464;SDS011;68932;47.410;8.232;2024-01-15T09:48:35;3.20;;;2.20;;
79464;SDS011;68932;47.410;8.232;2024-01-15T09:51:03;2.80;;;2.10;;
79464;SDS011;68932;47.410;8.232;2024-01-15T09:53:32;4.50;;;3.10;;
79464;SDS011;68932;47.410;8.232;2024-01-15T09:56:02;6.80;;;3.20;;
79464;SDS011;68932;47.410;8.232;2024-01-15T09:58:31;5.30;;;3.10;;
79464;SDS011;68932;47.410;8.232;2024-01-15T10:01:00;5.20;;;2.80;;
79464;SDS011;68932;47.410;8.232;2024-01-15T10:03:30;4.30;;;2.80;;
79464;SDS011;68932;47.410;8.232;2024-01-15T10:05:59;5.20;;;2.90;;
79464;SDS011;68932;47.410;8.232;2024-01-15T10:08:28;10.40;;;5.70;;
79464;SDS011;68932;47.410;8.232;2024-01-15T10:10:56;7.10;;;4.20;;
79464;SDS011;68932;47.410;8.232;2024-01-15T10:13:24;6.40;;;3.50;;
79464;SDS011;68932;47.410;8.232;2024-01-15T10:15:54;7.30;;;3.20;;
79464;SDS011;68932;47.410;8.232;2024-01-15T10:18:22;4.80;;;2.90;;
79464;SDS011;68932;47.410;8.232;2024-01-15T10:20:51;3.00;;;2.40;;
79464;SDS011;68932;47.410;8.232;2024-01-15T10:23:19;5.50;;;4.00;;
79464;SDS011;68932;47.410;8.232;2024-01-15T10:25:48;7.50;;;2.80;;
79464;SDS011;68932;47.410;8.232;2024-01-15T10:28:17;3.90;;;2.50;;
79464;SDS011;68932;47.410;8.232;2024-01-15T10:30:47;3.60;;;3.10;;
79464;SDS011;68932;47.410;8.232;2024-01-15T10:33:22;5.60;;;3.40;;
79464;SDS011;68932;47.410;8.232;2024-01-15T10:35:52;5.50;;;2.90;;
79464;SDS011;68932;47.410;8.232;2024-01-15T10:38:21;3.60;;;2.30;;
79464;SDS011;68932;47.410;8.232;2024-01-15T10:40:52;4.30;;;2.70;;
79464;SDS011;68932;47.410;8.232;2024-01-15T10:43:21;4.30;;;2.60;;
79464;SDS011;68932;47.410;8.232;2024-01-15T10:45:50;5.00;;;2.60;;
79464;SDS011;68932;47.410;8.232;2024-01-15T10:48:19;4.30;;;2.50;;
79464;SDS011;68932;47.410;8.232;2024-01-15T10:50:47;7.80;;;3.80;;
79464;SDS011;68932;47.410;8.232;2024-01-15T10:53:16;5.60;;;3.20;;
79464;SDS011;68932;47.410;8.232;2024-01-15T10:55:46;6.80;;;3.30;;
79464;SDS011;68932;47.410;8.232;2024-01-15T10:58:16;6.30;;;2.70;;
79464;SDS011;68932;47.410;8.232;2024-01-15T11:00:46;3.50;;;2.40;;
79464;SDS011;68932;47.410;8.232;2024-01-15T11:03:15;6.00;;;3.10;;
79464;SDS011;68932;47.410;8.232;2024-01-15T11:05:45;5.60;;;2.60;;
79464;SDS011;68932;47.410;8.232;2024-01-15T11:08:16;6.30;;;3.40;;
79464;SDS011;68932;47.410;8.232;2024-01-15T11:10:45;6.20;;;3.20;;
79464;SDS011;68932;47.410;8.232;2024-01-15T11:13:15;4.20;;;3.20;;
79464;SDS011;68932;47.410;8.232;2024-01-15T11:15:59;4.50;;;2.60;;
79464;SDS011;68932;47.410;8.232;2024-01-15T11:18:30;4.90;;;3.00;;
79464;SDS011;68932;47.410;8.232;2024-01-15T11:23:49;4.10;;;2.80;;
79464;SDS011;68932;47.410;8.232;2024-01-15T11:26:31;5.10;;;2.70;;
79464;SDS011;68932;47.410;8.232;2024-01-15T11:29:04;3.20;;;2.50;;
79464;SDS011;68932;47.410;8.232;2024-01-15T11:37:18;4.00;;;2.10;;
79464;SDS011;68932;47.410;8.232;2024-01-15T11:39:47;6.60;;;2.50;;
79464;SDS011;68932;47.410;8.232;2024-01-15T11:42:17;3.90;;;2.40;;
79464;SDS011;68932;47.410;8.232;2024-01-15T11:44:46;3.80;;;1.90;;
79464;SDS011;68932;47.410;8.232;2024-01-15T11:47:15;2.30;;;1.60;;
79464;SDS011;68932;47.410;8.232;2024-01-15T11:50:00;3.40;;;2.00;;
79464;SDS011;68932;47.410;8.232;2024-01-15T11:52:33;4.00;;;2.90;;
79464;SDS011;68932;47.410;8.232;2024-01-15T11:55:05;4.30;;;2.70;;
79464;SDS011;68932;47.410;8.232;2024-01-15T11:57:41;3.70;;;1.90;;
79464;SDS011;68932;47.410;8.232;2024-01-15T12:00:13;3.90;;;2.10;;
79464;SDS011;68932;47.410;8.232;2024-01-15T12:02:42;4.40;;;2.50;;
79464;SDS011;68932;47.410;8.232;2024-01-15T12:05:11;4.70;;;2.80;;
79464;SDS011;68932;47.410;8.232;2024-01-15T12:07:41;3.80;;;2.30;;
79464;SDS011;68932;47.410;8.232;2024-01-15T12:10:10;4.40;;;2.80;;
79464;SDS011;68932;47.410;8.232;2024-01-15T12:12:42;4.70;;;2.40;;
79464;SDS011;68932;47.410;8.232;2024-01-15T12:15:18;4.50;;;3.40;;
79464;SDS011;68932;47.410;8.232;2024-01-15T12:17:46;4.60;;;2.40;;
79464;SDS011;68932;47.410;8.232;2024-01-15T12:20:15;3.20;;;2.40;;
79464;SDS011;68932;47.410;8.232;2024-01-15T12:22:44;4.40;;;2.20;;
79464;SDS011;68932;47.410;8.232;2024-01-15T12:25:12;3.80;;;2.40;;
79464;SDS011;68932;47.410;8.232;2024-01-15T12:27:40;4.50;;;2.30;;
79464;SDS011;68932;47.410;8.232;2024-01-15T12:30:12;5.60;;;2.50;;
79464;SDS011;68932;47.410;8.232;2024-01-15T12:32:41;4.20;;;2.40;;
79464;SDS011;68932;47.410;8.232;2024-01-15T12:35:10;2.80;;;2.30;;
79464;SDS011;68932;47.410;8.232;2024-01-15T12:37:39;5.40;;;3.10;;
79464;SDS011;68932;47.410;8.232;2024-01-15T12:40:09;5.10;;;3.30;;
79464;SDS011;68932;47.410;8.232;2024-01-15T12:42:39;8.60;;;4.50;;
79464;SDS011;68932;47.410;8.232;2024-01-15T12:45:08;9.60;;;5.30;;
79464;SDS011;68932;47.410;8.232;2024-01-15T12:47:38;8.20;;;4.90;;
79464;SDS011;68932;47.410;8.232;2024-01-15T12:50:08;10.50;;;6.20;;
79464;SDS011;68932;47.410;8.232;2024-01-15T12:52:37;13.60;;;7.30;;
79464;SDS011;68932;47.410;8.232;2024-01-15T12:55:07;12.00;;;6.60;;
79464;SDS011;68932;47.410;8.232;2024-01-15T12:57:36;11.60;;;7.10;;
79464;SDS011;68932;47.410;8.232;2024-01-15T13:00:06;12.30;;;5.50;;
79464;SDS011;68932;47.410;8.232;2024-01-15T13:02:35;11.60;;;6.20;;
79464;SDS011;68932;47.410;8.232;2024-01-15T13:05:04;9.50;;;5.40;;
79464;SDS011;68932;47.410;8.232;2024-01-15T13:07:34;12.00;;;6.60;;
79464;SDS011;68932;47.410;8.232;2024-01-15T13:10:03;12.40;;;6.20;;
79464;SDS011;68932;47.410;8.232;2024-01-15T13:12:32;14.40;;;7.30;;
79464;SDS011;68932;47.410;8.232;2024-01-15T13:15:01;15.50;;;7.50;;
79464;SDS011;68932;47.410;8.232;2024-01-15T13:17:29;13.90;;;8.40;;
79464;SDS011;68932;47.410;8.232;2024-01-15T13:19:58;16.00;;;8.60;;
79464;SDS011;68932;47.410;8.232;2024-01-15T13:22:26;18.40;;;9.40;;
79464;SDS011;68932;47.410;8.232;2024-01-15T13:24:54;13.90;;;7.60;;
79464;SDS011;68932;47.410;8.232;2024-01-15T13:27:23;13.60;;;6.90;;
79464;SDS011;68932;47.410;8.232;2024-01-15T13:29:51;17.90;;;9.50;;
79464;SDS011;68932;47.410;8.232;2024-01-15T13:32:25;14.50;;;8.00;;
79464;SDS011;68932;47.410;8.232;2024-01-15T13:34:55;14.20;;;7.70;;
79464;SDS011;68932;47.410;8.232;2024-01-15T13:37:24;13.50;;;7.50;;
79464;SDS011;68932;47.410;8.232;2024-01-15T13:39:52;18.70;;;9.60;;
79464;SDS011;68932;47.410;8.232;2024-01-15T13:42:20;13.80;;;8.10;;
79464;SDS011;68932;47.410;8.232;2024-01-15T13:44:49;17.40;;;9.50;;
79464;SDS011;68932;47.410;8.232;2024-01-15T13:47:17;16.10;;;9.20;;
79464;SDS011;68932;47.410;8.232;2024-01-15T13:49:45;15.80;;;8.10;;
79464;SDS011;68932;47.410;8.232;2024-01-15T13:52:13;18.20;;;10.00;;
79464;SDS011;68932;47.410;8.232;2024-01-15T13:54:42;19.90;;;10.00;;
79464;SDS011;68932;47.410;8.232;2024-01-15T13:57:10;20.00;;;10.30;;
79464;SDS011;68932;47.410;8.232;2024-01-15T13:59:38;18.70;;;10.40;;
79464;SDS011;68932;47.410;8.232;2024-01-15T14:02:07;19.20;;;10.20;;
79464;SDS011;68932;47.410;8.232;2024-01-15T14:04:35;21.10;;;10.10;;
79464;SDS011;68932;47.410;8.232;2024-01-15T14:07:04;20.80;;;10.40;;
79464;SDS011;68932;47.410;8.232;2024-01-15T14:09:32;19.60;;;11.50;;
79464;SDS011;68932;47.410;8.232;2024-01-15T14:12:00;19.40;;;10.70;;
79464;SDS011;68932;47.410;8.232;2024-01-15T14:14:29;25.50;;;11.40;;
79464;SDS011;68932;47.410;8.232;2024-01-15T14:16:57;23.80;;;11.70;;
79464;SDS011;68932;47.410;8.232;2024-01-15T14:19:25;18.40;;;10.10;;
79464;SDS011;68932;47.410;8.232;2024-01-15T14:21:54;16.70;;;9.90;;
79464;SDS011;68932;47.410;8.232;2024-01-15T14:24:22;17.90;;;11.70;;
79464;SDS011;68932;47.410;8.232;2024-01-15T14:26:50;17.80;;;9.10;;
79464;SDS011;68932;47.410;8.232;2024-01-15T14:29:18;21.40;;;9.80;;
79464;SDS011;68932;47.410;8.232;2024-01-15T14:31:47;14.90;;;8.00;;
79464;SDS011;68932;47.410;8.232;2024-01-15T14:34:15;15.60;;;8.70;;
79464;SDS011;68932;47.410;8.232;2024-01-15T14:36:43;20.00;;;10.20;;
79464;SDS011;68932;47.410;8.232;2024-01-15T14:39:12;19.50;;;10.90;;
79464;SDS011;68932;47.410;8.232;2024-01-15T14:41:40;21.10;;;10.20;;
79464;SDS011;68932;47.410;8.232;2024-01-15T14:44:08;21.20;;;10.20;;
79464;SDS011;68932;47.410;8.232;2024-01-15T14:46:37;21.60;;;10.60;;
79464;SDS011;68932;47.410;8.232;2024-01-15T14:49:05;24.00;;;12.50;;
79464;SDS011;68932;47.410;8.232;2024-01-15T14:51:33;22.10;;;12.10;;
79464;SDS011;68932;47.410;8.232;2024-01-15T14:54:02;21.50;;;11.30;;
79464;SDS011;68932;47.410;8.232;2024-01-15T14:56:30;21.90;;;10.90;;
79464;SDS011;68932;47.410;8.232;2024-01-15T14:58:58;20.70;;;11.60;;